sensor_id;sensor_type;location;lat;lon;timestamp;temperature;humidity
10433;DHT22;5263;48.680;9.004;2023-02-17T00:00:25;8.30;99.90
10433;DHT22;5263;48.680;9.004;2023-02-17T00:02:55;8.30;99.90
10433;DHT22;5263;48.680;9.004;2023-02-17T00:05:21;8.20;99.90
10433;DHT22;5263;48.680;9.004;2023-02-17T00:07:47;8.30;99.90
10433;DHT22;5263;48.680;9.004;2023-02-17T00:10:12;8.20;99.90
10433;DHT22;5263;48.680;9.004;2023-02-17T00:12:38;8.40;99.90
10433;DHT22;5263;48.680;9.004;2023-02-17T00:15:04;8.40;99.90
10433;DHT22;5263;48.680;9.004;2023-02-17T00:17:29;8.50;99.90
10433;DHT22;5263;48.680;9.004;2023-02-17T00:19:55;8.40;99.90
10433;DHT22;5263;48.680;9.004;2023-02-17T00:22:20;8.30;99.90
10433;DHT22;5263;48.680;9.004;2023-02-17T00:24:46;8.30;99.90
10433;DHT22;5263;48.680;9.004;2023-02-17T00:27:11;8.50;99.90
10433;DHT22;5263;48.680;9.004;2023-02-17T00:29:37;8.50;99.90
10433;DHT22;5263;48.680;9.004;2023-02-17T00:32:03;8.40;99.90
10433;DHT22;5263;48.680;9.004;2023-02-17T00:34:28;8.40;99.90
10433;DHT22;5263;48.680;9.004;2023-02-17T00:36:54;8.40;99.90
10433;DHT22;5263;48.680;9.004;2023-02-17T00:39:19;8.40;99.90
10433;DHT22;5263;48.680;9.004;2023-02-17T00:41:45;8.40;99.90
10433;DHT22;5263;48.680;9.004;2023-02-17T00:44:22;8.40;99.90
10433;DHT22;5263;48.680;9.004;2023-02-17T00:46:47;8.40;99.90
10433;DHT22;5263;48.680;9.004;2023-02-17T00:49:19;8.50;99.90
10433;DHT22;5263;48.680;9.004;2023-02-17T00:51:45;8.50;99.90
10433;DHT22;5263;48.680;9.004;2023-02-17T00:54:11;8.50;99.90
10433;DHT22;5263;48.680;9.004;2023-02-17T00:56:37;8.60;99.90
10433;DHT22;5263;48.680;9.004;2023-02-17T00:59:03;8.50;99.90
10433;DHT22;5263;48.680;9.004;2023-02-17T01:01:30;8.50;99.90
10433;DHT22;5263;48.680;9.004;2023-02-17T01:03:56;8.40;99.90
10433;DHT22;5263;48.680;9.004;2023-02-17T01:06:24;8.50;99.90
10433;DHT22;5263;48.680;9.004;2023-02-17T01:08:50;8.40;99.90
10433;DHT22;5263;48.680;9.004;2023-02-17T01:11:20;8.40;99.90
10433;DHT22;5263;48.680;9.004;2023-02-17T01:13:47;8.40;99.90
10433;DHT22;5263;48.680;9.004;2023-02-17T01:16:26;8.50;99.90
10433;DHT22;5263;48.680;9.004;2023-02-17T01:18:52;8.40;99.90
10433;DHT22;5263;48.680;9.004;2023-02-17T01:21:19;8.50;99.90
10433;DHT22;5263;48.680;9.004;2023-02-17T01:23:48;8.50;99.90
10433;DHT22;5263;48.680;9.004;2023-02-17T01:26:19;8.50;99.90
10433;DHT22;5263;48.680;9.004;2023-02-17T01:28:45;8.40;99.90
10433;DHT22;5263;48.680;9.004;2023-02-17T01:31:11;8.40;99.90
10433;DHT22;5263;48.680;9.004;2023-02-17T01:33:38;8.40;99.90
10433;DHT22;5263;48.680;9.004;2023-02-17T01:36:06;8.40;99.90
10433;DHT22;5263;48.680;9.004;2023-02-17T01:38:33;8.50;99.90
10433;DHT22;5263;48.680;9.004;2023-02-17T01:40:59;8.50;99.90
10433;DHT22;5263;48.680;9.004;2023-02-17T01:43:25;8.50;99.90
10433;DHT22;5263;48.680;9.004;2023-02-17T01:45:53;8.50;99.90
10433;DHT22;5263;48.680;9.004;2023-02-17T01:48:41;8.50;99.90
10433;DHT22;5263;48.680;9.004;2023-02-17T01:51:25;8.30;99.90
10433;DHT22;5263;48.680;9.004;2023-02-17T01:54:15;8.30;99.90
10433;DHT22;5263;48.680;9.004;2023-02-17T01:56:43;8.30;99.90
10433;DHT22;5263;48.680;9.004;2023-02-17T01:59:19;8.30;99.90
10433;DHT22;5263;48.680;9.004;2023-02-17T02:01:46;8.30;99.90
10433;DHT22;5263;48.680;9.004;2023-02-17T02:04:16;8.40;99.90
10433;DHT22;5263;48.680;9.004;2023-02-17T02:06:44;8.40;99.90
10433;DHT22;5263;48.680;9.004;2023-02-17T02:09:22;8.40;99.90
10433;DHT22;5263;48.680;9.004;2023-02-17T02:11:51;8.50;99.90
10433;DHT22;5263;48.680;9.004;2023-02-17T02:14:18;8.50;99.90
10433;DHT22;5263;48.680;9.004;2023-02-17T02:26:00;8.50;99.90
10433;DHT22;5263;48.680;9.004;2023-02-17T02:34:08;8.40;99.90
10433;DHT22;5263;48.680;9.004;2023-02-17T02:36:46;8.50;99.90
10433;DHT22;5263;48.680;9.004;2023-02-17T02:39:17;8.40;99.90
10433;DHT22;5263;48.680;9.004;2023-02-17T02:41:50;8.50;99.90
10433;DHT22;5263;48.680;9.004;2023-02-17T02:44:18;8.40;99.90
10433;DHT22;5263;48.680;9.004;2023-02-17T02:46:54;8.30;99.90
10433;DHT22;5263;48.680;9.004;2023-02-17T02:49:20;8.40;99.90
10433;DHT22;5263;48.680;9.004;2023-02-17T02:51:56;8.40;99.90
10433;DHT22;5263;48.680;9.004;2023-02-17T02:59:46;8.30;99.90
10433;DHT22;5263;48.680;9.004;2023-02-17T03:02:28;8.30;99.90
10433;DHT22;5263;48.680;9.004;2023-02-17T03:06:02;8.20;99.90
10433;DHT22;5263;48.680;9.004;2023-02-17T03:08:16;8.30;99.90
10433;DHT22;5263;48.680;9.004;2023-02-17T03:10:50;8.30;99.90
10433;DHT22;5263;48.680;9.004;2023-02-17T03:13:17;8.40;99.90
10433;DHT22;5263;48.680;9.004;2023-02-17T03:15:44;8.40;99.90
10433;DHT22;5263;48.680;9.004;2023-02-17T03:18:09;8.40;99.90
10433;DHT22;5263;48.680;9.004;2023-02-17T03:20:39;8.30;99.90
10433;DHT22;5263;48.680;9.004;2023-02-17T03:23:08;8.30;99.90
10433;DHT22;5263;48.680;9.004;2023-02-17T03:25:34;8.30;99.90
10433;DHT22;5263;48.680;9.004;2023-02-17T03:27:59;8.40;99.90
10433;DHT22;5263;48.680;9.004;2023-02-17T03:30:25;8.50;99.90
10433;DHT22;5263;48.680;9.004;2023-02-17T03:32:51;8.40;99.90
10433;DHT22;5263;48.680;9.004;2023-02-17T03:35:17;8.40;99.90
10433;DHT22;5263;48.680;9.004;2023-02-17T03:37:42;8.40;99.90
10433;DHT22;5263;48.680;9.004;2023-02-17T03:40:08;8.40;99.90
10433;DHT22;5263;48.680;9.004;2023-02-17T03:42:34;8.10;99.90
10433;DHT22;5263;48.680;9.004;2023-02-17T03:45:00;8.00;99.90
10433;DHT22;5263;48.680;9.004;2023-02-17T03:47:26;8.00;99.90
10433;DHT22;5263;48.680;9.004;2023-02-17T03:49:51;8.00;99.90
10433;DHT22;5263;48.680;9.004;2023-02-17T03:52:17;7.90;99.90
10433;DHT22;5263;48.680;9.004;2023-02-17T03:54:43;7.90;99.90
10433;DHT22;5263;48.680;9.004;2023-02-17T03:57:09;8.00;99.90
10433;DHT22;5263;48.680;9.004;2023-02-17T03:59:35;8.20;99.90
10433;DHT22;5263;48.680;9.004;2023-02-17T04:02:01;8.20;99.90
10433;DHT22;5263;48.680;9.004;2023-02-17T04:04:26;8.20;99.90
10433;DHT22;5263;48.680;9.004;2023-02-17T04:06:52;8.40;99.90
10433;DHT22;5263;48.680;9.004;2023-02-17T04:09:18;8.70;99.90
10433;DHT22;5263;48.680;9.004;2023-02-17T04:11:43;8.30;99.90
10433;DHT22;5263;48.680;9.004;2023-02-17T04:14:09;8.30;99.90
10433;DHT22;5263;48.680;9.004;2023-02-17T04:16:35;8.40;99.90
10433;DHT22;5263;48.680;9.004;2023-02-17T04:19:06;8.30;99.90
10433;DHT22;5263;48.680;9.004;2023-02-17T04:21:32;8.40;99.90
10433;DHT22;5263;48.680;9.004;2023-02-17T04:24:00;8.70;99.90
10433;DHT22;5263;48.680;9.004;2023-02-17T04:26:26;8.30;99.90
10433;DHT22;5263;48.680;9.004;2023-02-17T04:28:52;8.40;99.90
10433;DHT22;5263;48.680;9.004;2023-02-17T04:31:17;8.40;99.90
10433;DHT22;5263;48.680;9.004;2023-02-17T04:33:43;8.30;99.90
10433;DHT22;5263;48.680;9.004;2023-02-17T04:36:08;8.30;99.90
10433;DHT22;5263;48.680;9.004;2023-02-17T04:38:35;8.30;99.90
10433;DHT22;5263;48.680;9.004;2023-02-17T04:41:01;8.30;99.90
10433;DHT22;5263;48.680;9.004;2023-02-17T04:43:27;8.20;99.90
10433;DHT22;5263;48.680;9.004;2023-02-17T04:45:54;8.10;99.90
10433;DHT22;5263;48.680;9.004;2023-02-17T04:48:19;8.20;99.90
10433;DHT22;5263;48.680;9.004;2023-02-17T04:50:45;8.90;99.90
10433;DHT22;5263;48.680;9.004;2023-02-17T04:53:11;8.40;99.90
10433;DHT22;5263;48.680;9.004;2023-02-17T04:55:38;8.60;99.90
10433;DHT22;5263;48.680;9.004;2023-02-17T04:58:04;8.50;99.90
10433;DHT22;5263;48.680;9.004;2023-02-17T05:00:30;8.50;99.90
10433;DHT22;5263;48.680;9.004;2023-02-17T05:02:55;8.50;99.90
10433;DHT22;5263;48.680;9.004;2023-02-17T05:05:21;8.60;99.90
10433;DHT22;5263;48.680;9.004;2023-02-17T05:07:47;8.60;99.90
10433;DHT22;5263;48.680;9.004;2023-02-17T05:12:39;8.80;99.90
10433;DHT22;5263;48.680;9.004;2023-02-17T05:15:06;8.70;99.90
10433;DHT22;5263;48.680;9.004;2023-02-17T05:17:32;8.70;99.90
10433;DHT22;5263;48.680;9.004;2023-02-17T05:19:58;8.70;99.90
10433;DHT22;5263;48.680;9.004;2023-02-17T05:22:24;8.80;99.90
10433;DHT22;5263;48.680;9.004;2023-02-17T05:24:49;8.70;99.90
10433;DHT22;5263;48.680;9.004;2023-02-17T05:27:15;8.70;99.90
10433;DHT22;5263;48.680;9.004;2023-02-17T05:29:41;8.70;99.90
10433;DHT22;5263;48.680;9.004;2023-02-17T05:32:06;9.00;99.90
10433;DHT22;5263;48.680;9.004;2023-02-17T05:34:32;8.80;99.90
10433;DHT22;5263;48.680;9.004;2023-02-17T05:36:57;8.80;99.90
10433;DHT22;5263;48.680;9.004;2023-02-17T05:39:23;8.80;99.90
10433;DHT22;5263;48.680;9.004;2023-02-17T05:41:49;8.80;99.90
10433;DHT22;5263;48.680;9.004;2023-02-17T05:44:15;8.90;99.90
10433;DHT22;5263;48.680;9.004;2023-02-17T05:46:41;8.80;99.90
10433;DHT22;5263;48.680;9.004;2023-02-17T05:49:06;8.70;99.90
10433;DHT22;5263;48.680;9.004;2023-02-17T05:51:32;8.70;99.90
10433;DHT22;5263;48.680;9.004;2023-02-17T05:53:58;8.70;99.90
10433;DHT22;5263;48.680;9.004;2023-02-17T05:56:23;8.70;99.90
10433;DHT22;5263;48.680;9.004;2023-02-17T05:58:49;8.70;99.90
10433;DHT22;5263;48.680;9.004;2023-02-17T06:01:14;8.70;99.90
10433;DHT22;5263;48.680;9.004;2023-02-17T06:03:40;8.70;99.90
10433;DHT22;5263;48.680;9.004;2023-02-17T06:06:06;8.70;99.90
10433;DHT22;5263;48.680;9.004;2023-02-17T06:08:32;8.70;99.90
10433;DHT22;5263;48.680;9.004;2023-02-17T06:10:58;8.70;99.90
10433;DHT22;5263;48.680;9.004;2023-02-17T06:13:23;8.80;99.90
10433;DHT22;5263;48.680;9.004;2023-02-17T06:15:49;8.90;99.90
10433;DHT22;5263;48.680;9.004;2023-02-17T06:18:14;9.00;99.90
10433;DHT22;5263;48.680;9.004;2023-02-17T06:20:40;9.50;99.90
10433;DHT22;5263;48.680;9.004;2023-02-17T06:23:06;8.90;99.90
10433;DHT22;5263;48.680;9.004;2023-02-17T06:25:32;8.90;99.90
10433;DHT22;5263;48.680;9.004;2023-02-17T06:27:57;8.80;99.90
10433;DHT22;5263;48.680;9.004;2023-02-17T06:30:23;8.70;99.90
10433;DHT22;5263;48.680;9.004;2023-02-17T06:32:49;8.60;99.90
10433;DHT22;5263;48.680;9.004;2023-02-17T06:35:15;9.00;99.90
10433;DHT22;5263;48.680;9.004;2023-02-17T06:37:41;8.50;99.90
10433;DHT22;5263;48.680;9.004;2023-02-17T06:40:07;8.50;99.90
10433;DHT22;5263;48.680;9.004;2023-02-17T06:42:33;8.50;99.90
10433;DHT22;5263;48.680;9.004;2023-02-17T06:44:59;8.50;99.90
10433;DHT22;5263;48.680;9.004;2023-02-17T06:47:25;8.40;99.90
10433;DHT22;5263;48.680;9.004;2023-02-17T06:49:51;8.30;99.90
10433;DHT22;5263;48.680;9.004;2023-02-17T06:52:16;8.40;99.90
10433;DHT22;5263;48.680;9.004;2023-02-17T06:54:42;8.30;99.90
10433;DHT22;5263;48.680;9.004;2023-02-17T06:57:07;8.50;99.90
10433;DHT22;5263;48.680;9.004;2023-02-17T06:59:33;8.50;99.90
10433;DHT22;5263;48.680;9.004;2023-02-17T07:01:59;8.50;99.90
10433;DHT22;5263;48.680;9.004;2023-02-17T07:04:24;8.50;99.90
10433;DHT22;5263;48.680;9.004;2023-02-17T07:06:50;8.50;99.90
10433;DHT22;5263;48.680;9.004;2023-02-17T07:09:15;8.50;99.90
10433;DHT22;5263;48.680;9.004;2023-02-17T07:11:41;8.50;99.90
10433;DHT22;5263;48.680;9.004;2023-02-17T07:14:08;9.10;99.90
10433;DHT22;5263;48.680;9.004;2023-02-17T07:16:34;8.70;99.90
10433;DHT22;5263;48.680;9.004;2023-02-17T07:19:00;8.70;99.90
10433;DHT22;5263;48.680;9.004;2023-02-17T07:21:25;8.70;99.90
10433;DHT22;5263;48.680;9.004;2023-02-17T07:23:51;8.70;99.90
10433;DHT22;5263;48.680;9.004;2023-02-17T07:26:16;8.70;99.90
10433;DHT22;5263;48.680;9.004;2023-02-17T07:28:42;8.80;99.90
10433;DHT22;5263;48.680;9.004;2023-02-17T07:31:14;8.80;99.90
10433;DHT22;5263;48.680;9.004;2023-02-17T07:33:41;8.80;99.90
10433;DHT22;5263;48.680;9.004;2023-02-17T07:36:12;8.80;99.90
10433;DHT22;5263;48.680;9.004;2023-02-17T07:38:39;8.80;99.90
10433;DHT22;5263;48.680;9.004;2023-02-17T07:41:10;8.80;99.90
10433;DHT22;5263;48.680;9.004;2023-02-17T07:43:36;8.80;99.90
10433;DHT22;5263;48.680;9.004;2023-02-17T07:46:03;8.80;99.90
10433;DHT22;5263;48.680;9.004;2023-02-17T07:48:28;8.90;99.90
10433;DHT22;5263;48.680;9.004;2023-02-17T07:50:54;8.90;99.90
10433;DHT22;5263;48.680;9.004;2023-02-17T07:53:19;8.90;99.90
10433;DHT22;5263;48.680;9.004;2023-02-17T07:55:45;9.00;99.90
10433;DHT22;5263;48.680;9.004;2023-02-17T07:58:10;8.90;99.90
10433;DHT22;5263;48.680;9.004;2023-02-17T08:00:36;8.90;99.90
10433;DHT22;5263;48.680;9.004;2023-02-17T08:03:02;9.00;99.90
10433;DHT22;5263;48.680;9.004;2023-02-17T08:05:27;9.10;99.90
10433;DHT22;5263;48.680;9.004;2023-02-17T08:07:53;9.10;99.90
10433;DHT22;5263;48.680;9.004;2023-02-17T08:10:39;9.10;99.90
10433;DHT22;5263;48.680;9.004;2023-02-17T08:13:24;9.20;99.90
10433;DHT22;5263;48.680;9.004;2023-02-17T08:15:50;9.30;99.90
10433;DHT22;5263;48.680;9.004;2023-02-17T08:18:16;9.40;99.90
10433;DHT22;5263;48.680;9.004;2023-02-17T08:20:41;9.40;99.90
10433;DHT22;5263;48.680;9.004;2023-02-17T08:23:07;9.40;99.90
10433;DHT22;5263;48.680;9.004;2023-02-17T08:25:34;9.50;99.90
10433;DHT22;5263;48.680;9.004;2023-02-17T08:28:02;9.60;99.90
10433;DHT22;5263;48.680;9.004;2023-02-17T08:30:28;9.70;99.90
10433;DHT22;5263;48.680;9.004;2023-02-17T08:32:53;9.80;99.90
10433;DHT22;5263;48.680;9.004;2023-02-17T08:35:19;9.70;99.90
10433;DHT22;5263;48.680;9.004;2023-02-17T08:37:47;9.60;99.90
10433;DHT22;5263;48.680;9.004;2023-02-17T08:40:13;9.60;99.90
10433;DHT22;5263;48.680;9.004;2023-02-17T08:42:39;9.70;99.90
10433;DHT22;5263;48.680;9.004;2023-02-17T08:45:05;9.80;99.90
10433;DHT22;5263;48.680;9.004;2023-02-17T08:47:31;10.10;99.90
10433;DHT22;5263;48.680;9.004;2023-02-17T08:49:57;10.10;99.90
10433;DHT22;5263;48.680;9.004;2023-02-17T08:52:22;10.20;99.90
10433;DHT22;5263;48.680;9.004;2023-02-17T08:54:48;10.30;99.90
10433;DHT22;5263;48.680;9.004;2023-02-17T08:57:14;10.30;99.90
10433;DHT22;5263;48.680;9.004;2023-02-17T08:59:39;10.40;99.90
10433;DHT22;5263;48.680;9.004;2023-02-17T09:02:05;10.40;99.90
10433;DHT22;5263;48.680;9.004;2023-02-17T09:04:31;10.10;99.90
10433;DHT22;5263;48.680;9.004;2023-02-17T09:06:56;9.90;99.90
10433;DHT22;5263;48.680;9.004;2023-02-17T09:09:24;9.80;99.90
10433;DHT22;5263;48.680;9.004;2023-02-17T09:11:51;9.80;99.90
10433;DHT22;5263;48.680;9.004;2023-02-17T09:14:20;9.60;99.90
10433;DHT22;5263;48.680;9.004;2023-02-17T09:16:52;9.70;99.90
10433;DHT22;5263;48.680;9.004;2023-02-17T09:19:18;9.70;99.90
10433;DHT22;5263;48.680;9.004;2023-02-17T09:21:44;9.70;99.90
10433;DHT22;5263;48.680;9.004;2023-02-17T09:24:10;9.70;99.90
10433;DHT22;5263;48.680;9.004;2023-02-17T09:26:35;9.70;99.90
10433;DHT22;5263;48.680;9.004;2023-02-17T09:29:02;9.70;99.90
10433;DHT22;5263;48.680;9.004;2023-02-17T09:31:28;9.80;99.90
10433;DHT22;5263;48.680;9.004;2023-02-17T09:33:55;9.90;99.90
10433;DHT22;5263;48.680;9.004;2023-02-17T09:36:23;9.90;99.90
10433;DHT22;5263;48.680;9.004;2023-02-17T09:38:49;9.90;99.90
10433;DHT22;5263;48.680;9.004;2023-02-17T09:41:20;9.90;99.90
10433;DHT22;5263;48.680;9.004;2023-02-17T09:43:46;9.90;99.90
10433;DHT22;5263;48.680;9.004;2023-02-17T09:46:26;10.00;99.90
10433;DHT22;5263;48.680;9.004;2023-02-17T09:49:00;10.00;99.90
10433;DHT22;5263;48.680;9.004;2023-02-17T09:54:15;10.10;99.90
10433;DHT22;5263;48.680;9.004;2023-02-17T09:56:44;10.10;99.90
10433;DHT22;5263;48.680;9.004;2023-02-17T09:59:17;10.20;99.90
10433;DHT22;5263;48.680;9.004;2023-02-17T10:01:45;10.30;99.90
10433;DHT22;5263;48.680;9.004;2023-02-17T10:04:15;10.30;99.90
10433;DHT22;5263;48.680;9.004;2023-02-17T10:06:54;10.40;99.90
10433;DHT22;5263;48.680;9.004;2023-02-17T10:09:27;10.80;99.90
10433;DHT22;5263;48.680;9.004;2023-02-17T10:12:07;11.10;99.90
10433;DHT22;5263;48.680;9.004;2023-02-17T10:14:45;11.10;99.90
10433;DHT22;5263;48.680;9.004;2023-02-17T10:20:15;11.10;99.90
10433;DHT22;5263;48.680;9.004;2023-02-17T10:22:45;11.50;99.90
10433;DHT22;5263;48.680;9.004;2023-02-17T10:25:24;11.50;99.90
10433;DHT22;5263;48.680;9.004;2023-02-17T10:28:07;11.30;99.90
10433;DHT22;5263;48.680;9.004;2023-02-17T10:33:26;10.90;99.90
10433;DHT22;5263;48.680;9.004;2023-02-17T10:41:19;11.20;99.90
10433;DHT22;5263;48.680;9.004;2023-02-17T10:43:47;11.20;99.90
10433;DHT22;5263;48.680;9.004;2023-02-17T10:46:15;11.40;99.90
10433;DHT22;5263;48.680;9.004;2023-02-17T10:48:50;11.70;99.90
10433;DHT22;5263;48.680;9.004;2023-02-17T10:51:21;12.00;99.90
10433;DHT22;5263;48.680;9.004;2023-02-17T10:53:51;12.20;99.90
10433;DHT22;5263;48.680;9.004;2023-02-17T10:56:34;12.30;99.90
10433;DHT22;5263;48.680;9.004;2023-02-17T10:59:22;12.30;99.90
10433;DHT22;5263;48.680;9.004;2023-02-17T11:01:50;12.90;99.90
10433;DHT22;5263;48.680;9.004;2023-02-17T11:04:16;13.40;99.90
10433;DHT22;5263;48.680;9.004;2023-02-17T11:06:52;14.00;99.90
10433;DHT22;5263;48.680;9.004;2023-02-17T11:09:24;14.00;99.90
10433;DHT22;5263;48.680;9.004;2023-02-17T11:12:05;13.10;99.90
10433;DHT22;5263;48.680;9.004;2023-02-17T11:14:36;12.50;99.90
10433;DHT22;5263;48.680;9.004;2023-02-17T11:17:13;12.90;99.90
10433;DHT22;5263;48.680;9.004;2023-02-17T11:19:39;12.60;99.90
10433;DHT22;5263;48.680;9.004;2023-02-17T11:22:17;13.30;99.90
10433;DHT22;5263;48.680;9.004;2023-02-17T11:24:57;13.70;99.90
10433;DHT22;5263;48.680;9.004;2023-02-17T11:27:24;13.40;99.90
10433;DHT22;5263;48.680;9.004;2023-02-17T11:29:50;14.30;99.90
10433;DHT22;5263;48.680;9.004;2023-02-17T11:32:16;14.30;99.90
10433;DHT22;5263;48.680;9.004;2023-02-17T11:34:42;13.90;99.90
10433;DHT22;5263;48.680;9.004;2023-02-17T11:39:43;13.70;99.90
10433;DHT22;5263;48.680;9.004;2023-02-17T11:42:20;13.20;99.90
10433;DHT22;5263;48.680;9.004;2023-02-17T11:44:46;12.70;99.90
10433;DHT22;5263;48.680;9.004;2023-02-17T11:52:47;12.00;99.90
10433;DHT22;5263;48.680;9.004;2023-02-17T11:55:34;11.80;99.90
10433;DHT22;5263;48.680;9.004;2023-02-17T12:07:06;11.50;99.90
10433;DHT22;5263;48.680;9.004;2023-02-17T12:12:47;11.40;99.90
10433;DHT22;5263;48.680;9.004;2023-02-17T12:21:04;11.30;99.90
10433;DHT22;5263;48.680;9.004;2023-02-17T12:26:47;11.40;99.90
10433;DHT22;5263;48.680;9.004;2023-02-17T12:34:57;11.30;99.90
10433;DHT22;5263;48.680;9.004;2023-02-17T12:37:32;11.30;99.90
10433;DHT22;5263;48.680;9.004;2023-02-17T12:40:02;11.30;99.90
10433;DHT22;5263;48.680;9.004;2023-02-17T12:42:40;11.20;99.90
10433;DHT22;5263;48.680;9.004;2023-02-17T12:48:24;11.50;99.90
10433;DHT22;5263;48.680;9.004;2023-02-17T12:56:03;11.90;99.90
10433;DHT22;5263;48.680;9.004;2023-02-17T12:58:32;12.00;99.90
10433;DHT22;5263;48.680;9.004;2023-02-17T13:01:14;12.00;99.90
10433;DHT22;5263;48.680;9.004;2023-02-17T13:03:43;11.90;99.90
10433;DHT22;5263;48.680;9.004;2023-02-17T13:06:38;11.80;99.90
10433;DHT22;5263;48.680;9.004;2023-02-17T13:09:29;11.90;99.90
10433;DHT22;5263;48.680;9.004;2023-02-17T13:14:56;12.00;99.90
10433;DHT22;5263;48.680;9.004;2023-02-17T13:17:26;11.90;99.90
10433;DHT22;5263;48.680;9.004;2023-02-17T13:22:41;11.90;99.90
10433;DHT22;5263;48.680;9.004;2023-02-17T13:25:11;11.90;99.90
10433;DHT22;5263;48.680;9.004;2023-02-17T13:27:38;11.80;99.90
10433;DHT22;5263;48.680;9.004;2023-02-17T13:30:05;11.90;99.90
10433;DHT22;5263;48.680;9.004;2023-02-17T13:32:36;11.90;99.90
10433;DHT22;5263;48.680;9.004;2023-02-17T13:37:45;11.80;99.90
10433;DHT22;5263;48.680;9.004;2023-02-17T13:42:46;11.70;99.90
10433;DHT22;5263;48.680;9.004;2023-02-17T13:45:24;11.60;99.90
10433;DHT22;5263;48.680;9.004;2023-02-17T13:47:52;11.80;99.90
10433;DHT22;5263;48.680;9.004;2023-02-17T13:52:59;12.20;99.90
10433;DHT22;5263;48.680;9.004;2023-02-17T13:55:25;12.70;99.90
10433;DHT22;5263;48.680;9.004;2023-02-17T13:57:56;13.10;99.90
10433;DHT22;5263;48.680;9.004;2023-02-17T14:00:30;13.10;99.90
10433;DHT22;5263;48.680;9.004;2023-02-17T14:08:02;14.70;99.90
10433;DHT22;5263;48.680;9.004;2023-02-17T14:10:28;14.90;99.90
10433;DHT22;5263;48.680;9.004;2023-02-17T14:12:55;14.20;99.90
10433;DHT22;5263;48.680;9.004;2023-02-17T14:15:24;13.40;99.90
10433;DHT22;5263;48.680;9.004;2023-02-17T14:17:49;13.00;99.90
10433;DHT22;5263;48.680;9.004;2023-02-17T14:23:09;13.40;99.90
10433;DHT22;5263;48.680;9.004;2023-02-17T14:25:43;13.10;99.90
10433;DHT22;5263;48.680;9.004;2023-02-17T14:28:23;12.90;99.90
10433;DHT22;5263;48.680;9.004;2023-02-17T14:30:49;12.90;99.90
10433;DHT22;5263;48.680;9.004;2023-02-17T14:38:26;12.70;99.90
10433;DHT22;5263;48.680;9.004;2023-02-17T14:40:53;12.50;99.90
10433;DHT22;5263;48.680;9.004;2023-02-17T14:43:21;12.60;99.90
10433;DHT22;5263;48.680;9.004;2023-02-17T14:45:47;12.50;99.90
10433;DHT22;5263;48.680;9.004;2023-02-17T14:48:13;12.30;99.90
10433;DHT22;5263;48.680;9.004;2023-02-17T14:50:39;12.00;99.90
10433;DHT22;5263;48.680;9.004;2023-02-17T14:53:29;12.00;99.90
10433;DHT22;5263;48.680;9.004;2023-02-17T14:58:27;12.20;99.90
10433;DHT22;5263;48.680;9.004;2023-02-17T15:00:53;12.40;99.90
10433;DHT22;5263;48.680;9.004;2023-02-17T15:03:19;12.50;99.90
10433;DHT22;5263;48.680;9.004;2023-02-17T15:05:45;12.60;99.90
10433;DHT22;5263;48.680;9.004;2023-02-17T15:08:15;12.50;99.90
10433;DHT22;5263;48.680;9.004;2023-02-17T15:10:41;12.40;99.90
10433;DHT22;5263;48.680;9.004;2023-02-17T15:13:16;12.10;99.90
10433;DHT22;5263;48.680;9.004;2023-02-17T15:15:42;11.80;99.90
10433;DHT22;5263;48.680;9.004;2023-02-17T15:18:13;11.60;99.90
10433;DHT22;5263;48.680;9.004;2023-02-17T15:20:41;11.60;99.90
10433;DHT22;5263;48.680;9.004;2023-02-17T15:23:15;11.60;99.90
10433;DHT22;5263;48.680;9.004;2023-02-17T15:25:42;11.50;99.90
10433;DHT22;5263;48.680;9.004;2023-02-17T15:28:12;11.50;99.90
10433;DHT22;5263;48.680;9.004;2023-02-17T15:30:37;11.50;99.90
10433;DHT22;5263;48.680;9.004;2023-02-17T15:33:10;11.50;99.90
10433;DHT22;5263;48.680;9.004;2023-02-17T15:35:36;11.50;99.90
10433;DHT22;5263;48.680;9.004;2023-02-17T15:38:02;11.50;99.90
10433;DHT22;5263;48.680;9.004;2023-02-17T15:40:28;11.40;99.90
10433;DHT22;5263;48.680;9.004;2023-02-17T15:42:56;11.30;99.90
10433;DHT22;5263;48.680;9.004;2023-02-17T15:45:23;11.30;99.90
10433;DHT22;5263;48.680;9.004;2023-02-17T15:47:50;11.40;99.90
10433;DHT22;5263;48.680;9.004;2023-02-17T15:50:19;11.30;99.90
10433;DHT22;5263;48.680;9.004;2023-02-17T15:52:48;11.30;99.90
10433;DHT22;5263;48.680;9.004;2023-02-17T15:55:14;11.30;99.90
10433;DHT22;5263;48.680;9.004;2023-02-17T15:57:44;11.30;99.90
10433;DHT22;5263;48.680;9.004;2023-02-17T16:00:22;11.30;99.90
10433;DHT22;5263;48.680;9.004;2023-02-17T16:02:48;11.40;99.90
10433;DHT22;5263;48.680;9.004;2023-02-17T16:05:16;11.40;99.90
10433;DHT22;5263;48.680;9.004;2023-02-17T16:07:43;11.30;99.90
10433;DHT22;5263;48.680;9.004;2023-02-17T16:10:11;11.40;99.90
10433;DHT22;5263;48.680;9.004;2023-02-17T16:12:38;11.40;99.90
10433;DHT22;5263;48.680;9.004;2023-02-17T16:15:04;11.40;99.90
10433;DHT22;5263;48.680;9.004;2023-02-17T16:17:30;11.30;99.90
10433;DHT22;5263;48.680;9.004;2023-02-17T16:19:56;11.30;99.90
10433;DHT22;5263;48.680;9.004;2023-02-17T16:22:21;11.30;99.90
10433;DHT22;5263;48.680;9.004;2023-02-17T16:24:47;11.30;99.90
10433;DHT22;5263;48.680;9.004;2023-02-17T16:27:14;11.30;99.90
10433;DHT22;5263;48.680;9.004;2023-02-17T16:29:41;11.40;99.90
10433;DHT22;5263;48.680;9.004;2023-02-17T16:32:10;11.40;99.90
10433;DHT22;5263;48.680;9.004;2023-02-17T16:34:35;11.40;99.90
10433;DHT22;5263;48.680;9.004;2023-02-17T16:37:02;11.40;99.90
10433;DHT22;5263;48.680;9.004;2023-02-17T16:39:28;11.40;99.90
10433;DHT22;5263;48.680;9.004;2023-02-17T16:41:54;11.30;99.90
10433;DHT22;5263;48.680;9.004;2023-02-17T16:44:21;11.40;99.90
10433;DHT22;5263;48.680;9.004;2023-02-17T16:46:49;11.40;99.90
10433;DHT22;5263;48.680;9.004;2023-02-17T16:49:24;11.40;99.90
10433;DHT22;5263;48.680;9.004;2023-02-17T16:51:56;11.40;99.90
10433;DHT22;5263;48.680;9.004;2023-02-17T16:54:22;11.40;99.90
10433;DHT22;5263;48.680;9.004;2023-02-17T16:56:49;11.40;99.90
10433;DHT22;5263;48.680;9.004;2023-02-17T16:59:17;11.40;99.90
10433;DHT22;5263;48.680;9.004;2023-02-17T17:01:44;11.40;99.90
10433;DHT22;5263;48.680;9.004;2023-02-17T17:04:10;11.40;99.90
10433;DHT22;5263;48.680;9.004;2023-02-17T17:06:38;11.40;99.90
10433;DHT22;5263;48.680;9.004;2023-02-17T17:09:06;11.40;99.90
10433;DHT22;5263;48.680;9.004;2023-02-17T17:11:32;11.40;99.90
10433;DHT22;5263;48.680;9.004;2023-02-17T17:13:58;11.40;99.90
10433;DHT22;5263;48.680;9.004;2023-02-17T17:16:27;11.40;99.90
10433;DHT22;5263;48.680;9.004;2023-02-17T17:18:55;11.40;99.90
10433;DHT22;5263;48.680;9.004;2023-02-17T17:21:21;11.40;99.90
10433;DHT22;5263;48.680;9.004;2023-02-17T17:23:46;11.40;99.90
10433;DHT22;5263;48.680;9.004;2023-02-17T17:26:33;11.40;99.90
10433;DHT22;5263;48.680;9.004;2023-02-17T17:28:59;11.40;99.90
10433;DHT22;5263;48.680;9.004;2023-02-17T17:31:25;11.30;99.90
10433;DHT22;5263;48.680;9.004;2023-02-17T17:33:52;11.40;99.90
10433;DHT22;5263;48.680;9.004;2023-02-17T17:38:58;11.40;99.90
10433;DHT22;5263;48.680;9.004;2023-02-17T17:41:25;11.40;99.90
10433;DHT22;5263;48.680;9.004;2023-02-17T17:43:52;11.40;99.90
10433;DHT22;5263;48.680;9.004;2023-02-17T17:46:22;11.30;99.90
10433;DHT22;5263;48.680;9.004;2023-02-17T17:48:49;11.20;99.90
10433;DHT22;5263;48.680;9.004;2023-02-17T17:51:17;11.40;99.90
10433;DHT22;5263;48.680;9.004;2023-02-17T17:53:43;11.20;99.90